sensor_id;sensor_type;location;lat;lon;timestamp;temperature;humidity
57030;DHT22;42920;45.306;20.448;2023-03-01T00:01:24;154.00;2252.80
57030;DHT22;42920;45.306;20.448;2023-03-01T00:03:51;154.00;2252.80
57030;DHT22;42920;45.306;20.448;2023-03-01T00:06:17;153.90;2252.80
57030;DHT22;42920;45.306;20.448;2023-03-01T00:08:43;153.80;2252.80
57030;DHT22;42920;45.306;20.448;2023-03-01T00:11:13;154.00;2252.80
57030;DHT22;42920;45.306;20.448;2023-03-01T00:13:40;154.10;2252.80
57030;DHT22;42920;45.306;20.448;2023-03-01T00:16:08;154.00;2252.80
57030;DHT22;42920;45.306;20.448;2023-03-01T00:18:34;154.00;2252.80
57030;DHT22;42920;45.306;20.448;2023-03-01T00:20:59;154.10;2252.80
57030;DHT22;42920;45.306;20.448;2023-03-01T00:23:25;154.10;2252.80
57030;DHT22;42920;45.306;20.448;2023-03-01T00:25:51;154.10;2252.80
57030;DHT22;42920;45.306;20.448;2023-03-01T00:28:17;154.10;2252.80
57030;DHT22;42920;45.306;20.448;2023-03-01T00:30:43;154.10;2252.80
57030;DHT22;42920;45.306;20.448;2023-03-01T00:33:09;154.10;2252.80
57030;DHT22;42920;45.306;20.448;2023-03-01T00:35:35;154.10;2252.80
57030;DHT22;42920;45.306;20.448;2023-03-01T00:38:01;154.10;2252.80
57030;DHT22;42920;45.306;20.448;2023-03-01T00:40:28;154.10;2252.80
57030;DHT22;42920;45.306;20.448;2023-03-01T00:42:54;154.10;2252.80
57030;DHT22;42920;45.306;20.448;2023-03-01T00:45:20;154.10;2252.80
57030;DHT22;42920;45.306;20.448;2023-03-01T00:47:46;154.10;2252.80
57030;DHT22;42920;45.306;20.448;2023-03-01T00:50:11;154.20;2252.80
57030;DHT22;42920;45.306;20.448;2023-03-01T00:52:37;154.10;2252.80
57030;DHT22;42920;45.306;20.448;2023-03-01T00:55:04;154.10;2252.80
57030;DHT22;42920;45.306;20.448;2023-03-01T00:57:31;154.20;2252.80
57030;DHT22;42920;45.306;20.448;2023-03-01T00:59:56;154.20;2252.80
57030;DHT22;42920;45.306;20.448;2023-03-01T01:02:22;154.20;2252.80
57030;DHT22;42920;45.306;20.448;2023-03-01T01:04:48;154.20;2252.80
57030;DHT22;42920;45.306;20.448;2023-03-01T01:07:14;154.20;2252.80
57030;DHT22;42920;45.306;20.448;2023-03-01T01:09:40;154.50;2252.80
57030;DHT22;42920;45.306;20.448;2023-03-01T01:12:06;154.00;2252.80
57030;DHT22;42920;45.306;20.448;2023-03-01T01:14:32;154.10;2252.80
57030;DHT22;42920;45.306;20.448;2023-03-01T01:16:57;154.10;2252.80
57030;DHT22;42920;45.306;20.448;2023-03-01T01:19:24;154.50;2252.80
57030;DHT22;42920;45.306;20.448;2023-03-01T01:21:50;154.00;2252.80
57030;DHT22;42920;45.306;20.448;2023-03-01T01:24:15;154.00;2252.80
57030;DHT22;42920;45.306;20.448;2023-03-01T01:26:42;153.90;2252.80
57030;DHT22;42920;45.306;20.448;2023-03-01T01:29:08;153.90;2252.80
57030;DHT22;42920;45.306;20.448;2023-03-01T01:31:34;154.00;2252.80
57030;DHT22;42920;45.306;20.448;2023-03-01T01:34:02;153.90;2252.80
57030;DHT22;42920;45.306;20.448;2023-03-01T01:36:28;153.90;2252.80
57030;DHT22;42920;45.306;20.448;2023-03-01T01:38:53;153.90;2252.80
57030;DHT22;42920;45.306;20.448;2023-03-01T01:41:20;154.00;2252.80
57030;DHT22;42920;45.306;20.448;2023-03-01T01:44:09;154.00;2252.80
57030;DHT22;42920;45.306;20.448;2023-03-01T01:46:40;154.00;2252.80
57030;DHT22;42920;45.306;20.448;2023-03-01T01:52:18;154.10;2252.80
57030;DHT22;42920;45.306;20.448;2023-03-01T01:55:00;154.00;2252.80
57030;DHT22;42920;45.306;20.448;2023-03-01T01:57:48;154.10;2252.80
57030;DHT22;42920;45.306;20.448;2023-03-01T02:00:23;154.10;2252.80
57030;DHT22;42920;45.306;20.448;2023-03-01T02:02:54;154.10;2252.80
57030;DHT22;42920;45.306;20.448;2023-03-01T02:08:17;154.20;2252.80
57030;DHT22;42920;45.306;20.448;2023-03-01T02:10:44;154.10;2252.80
57030;DHT22;42920;45.306;20.448;2023-03-01T02:13:10;154.20;2252.80
57030;DHT22;42920;45.306;20.448;2023-03-01T02:15:38;154.20;2252.80
57030;DHT22;42920;45.306;20.448;2023-03-01T02:18:07;154.20;2252.80
57030;DHT22;42920;45.306;20.448;2023-03-01T02:23:24;154.20;2252.80
57030;DHT22;42920;45.306;20.448;2023-03-01T02:26:11;154.20;2252.80
57030;DHT22;42920;45.306;20.448;2023-03-01T02:28:43;154.10;2252.80
57030;DHT22;42920;45.306;20.448;2023-03-01T02:31:10;154.20;2252.80
57030;DHT22;42920;45.306;20.448;2023-03-01T02:33:58;154.20;2252.80
57030;DHT22;42920;45.306;20.448;2023-03-01T02:36:31;154.20;2252.80
57030;DHT22;42920;45.306;20.448;2023-03-01T02:39:01;154.20;2252.80
57030;DHT22;42920;45.306;20.448;2023-03-01T02:41:31;154.20;2252.80
57030;DHT22;42920;45.306;20.448;2023-03-01T02:43:58;154.20;2252.80
57030;DHT22;42920;45.306;20.448;2023-03-01T02:46:24;154.20;2252.80
57030;DHT22;42920;45.306;20.448;2023-03-01T02:48:53;154.20;2252.80
57030;DHT22;42920;45.306;20.448;2023-03-01T02:52:04;154.20;2252.80
57030;DHT22;42920;45.306;20.448;2023-03-01T02:54:54;154.20;2252.80
57030;DHT22;42920;45.306;20.448;2023-03-01T02:57:22;154.20;2252.80
57030;DHT22;42920;45.306;20.448;2023-03-01T02:59:50;154.20;2252.80
57030;DHT22;42920;45.306;20.448;2023-03-01T03:02:25;154.20;2252.80
57030;DHT22;42920;45.306;20.448;2023-03-01T03:05:08;154.20;2252.80
57030;DHT22;42920;45.306;20.448;2023-03-01T03:07:37;154.20;2252.80
57030;DHT22;42920;45.306;20.448;2023-03-01T03:10:05;154.30;2252.80
57030;DHT22;42920;45.306;20.448;2023-03-01T03:12:31;154.30;2252.80
57030;DHT22;42920;45.306;20.448;2023-03-01T03:14:57;154.20;2252.80
57030;DHT22;42920;45.306;20.448;2023-03-01T03:17:23;154.30;2252.80
57030;DHT22;42920;45.306;20.448;2023-03-01T03:19:48;154.30;2252.80
57030;DHT22;42920;45.306;20.448;2023-03-01T03:22:14;154.30;2252.80
57030;DHT22;42920;45.306;20.448;2023-03-01T03:24:40;154.30;2252.80
57030;DHT22;42920;45.306;20.448;2023-03-01T03:27:06;154.20;2252.80
57030;DHT22;42920;45.306;20.448;2023-03-01T03:29:32;154.20;2252.80
57030;DHT22;42920;45.306;20.448;2023-03-01T03:31:59;154.20;2252.80
57030;DHT22;42920;45.306;20.448;2023-03-01T03:34:24;154.30;2252.80
57030;DHT22;42920;45.306;20.448;2023-03-01T03:36:54;154.30;2252.80
57030;DHT22;42920;45.306;20.448;2023-03-01T03:39:23;154.30;2252.80
57030;DHT22;42920;45.306;20.448;2023-03-01T03:41:49;154.20;2252.80
57030;DHT22;42920;45.306;20.448;2023-03-01T03:44:14;154.20;2252.80
57030;DHT22;42920;45.306;20.448;2023-03-01T03:46:40;154.20;2252.80
57030;DHT22;42920;45.306;20.448;2023-03-01T03:49:07;154.20;2252.80
57030;DHT22;42920;45.306;20.448;2023-03-01T03:51:32;154.10;2252.80
57030;DHT22;42920;45.306;20.448;2023-03-01T03:53:58;154.10;2252.80
57030;DHT22;42920;45.306;20.448;2023-03-01T03:56:23;154.10;2252.80
57030;DHT22;42920;45.306;20.448;2023-03-01T03:58:51;154.10;2252.80
57030;DHT22;42920;45.306;20.448;2023-03-01T04:01:17;154.20;2252.80
57030;DHT22;42920;45.306;20.448;2023-03-01T04:03:43;154.20;2252.80
57030;DHT22;42920;45.306;20.448;2023-03-01T04:06:13;154.20;2252.80
57030;DHT22;42920;45.306;20.448;2023-03-01T04:08:39;154.20;2252.80
57030;DHT22;42920;45.306;20.448;2023-03-01T04:11:06;154.50;2252.80
57030;DHT22;42920;45.306;20.448;2023-03-01T04:13:51;154.30;2252.80
57030;DHT22;42920;45.306;20.448;2023-03-01T04:16:18;154.30;2252.80
57030;DHT22;42920;45.306;20.448;2023-03-01T04:18:44;154.30;2252.80
57030;DHT22;42920;45.306;20.448;2023-03-01T04:21:10;154.30;2252.80
57030;DHT22;42920;45.306;20.448;2023-03-01T04:23:37;154.30;2252.80
57030;DHT22;42920;45.306;20.448;2023-03-01T04:26:03;154.20;2252.80
57030;DHT22;42920;45.306;20.448;2023-03-01T04:28:30;154.30;2252.80
57030;DHT22;42920;45.306;20.448;2023-03-01T04:30:58;154.30;2252.80
57030;DHT22;42920;45.306;20.448;2023-03-01T04:33:25;154.30;2252.80
57030;DHT22;42920;45.306;20.448;2023-03-01T04:35:51;154.40;2252.80
57030;DHT22;42920;45.306;20.448;2023-03-01T04:38:18;154.40;2252.80
57030;DHT22;42920;45.306;20.448;2023-03-01T04:40:44;154.30;2252.80
57030;DHT22;42920;45.306;20.448;2023-03-01T04:43:11;154.30;2252.80
57030;DHT22;42920;45.306;20.448;2023-03-01T04:45:39;154.30;2252.80
57030;DHT22;42920;45.306;20.448;2023-03-01T04:48:05;154.30;2252.80
57030;DHT22;42920;45.306;20.448;2023-03-01T04:50:32;154.30;2252.80
57030;DHT22;42920;45.306;20.448;2023-03-01T04:52:58;154.20;2252.80
57030;DHT22;42920;45.306;20.448;2023-03-01T04:55:24;154.30;2252.80
57030;DHT22;42920;45.306;20.448;2023-03-01T04:57:51;154.30;2252.80
57030;DHT22;42920;45.306;20.448;2023-03-01T05:00:17;154.30;2252.80
57030;DHT22;42920;45.306;20.448;2023-03-01T05:02:47;154.20;2252.80
57030;DHT22;42920;45.306;20.448;2023-03-01T05:05:14;154.30;2252.80
57030;DHT22;42920;45.306;20.448;2023-03-01T05:07:40;154.30;2252.80
57030;DHT22;42920;45.306;20.448;2023-03-01T05:10:06;154.30;2252.80
57030;DHT22;42920;45.306;20.448;2023-03-01T05:12:32;154.30;2252.80
57030;DHT22;42920;45.306;20.448;2023-03-01T05:14:57;154.40;2252.80
57030;DHT22;42920;45.306;20.448;2023-03-01T05:17:23;154.40;2252.80
57030;DHT22;42920;45.306;20.448;2023-03-01T05:19:49;154.40;2252.80
57030;DHT22;42920;45.306;20.448;2023-03-01T05:22:15;154.40;2252.80
57030;DHT22;42920;45.306;20.448;2023-03-01T05:24:41;154.50;2252.80
57030;DHT22;42920;45.306;20.448;2023-03-01T05:27:07;154.40;2252.80
57030;DHT22;42920;45.306;20.448;2023-03-01T05:29:33;154.40;2252.80
57030;DHT22;42920;45.306;20.448;2023-03-01T05:32:01;154.40;2252.80
57030;DHT22;42920;45.306;20.448;2023-03-01T05:34:33;154.40;2252.80
57030;DHT22;42920;45.306;20.448;2023-03-01T05:36:59;154.50;2252.80
57030;DHT22;42920;45.306;20.448;2023-03-01T05:39:27;154.50;2252.80
57030;DHT22;42920;45.306;20.448;2023-03-01T05:41:54;154.50;2252.80
57030;DHT22;42920;45.306;20.448;2023-03-01T05:44:21;154.50;2252.80
57030;DHT22;42920;45.306;20.448;2023-03-01T05:46:47;179.20;2252.80
57030;DHT22;42920;45.306;20.448;2023-03-01T05:49:13;179.20;2252.80
57030;DHT22;42920;45.306;20.448;2023-03-01T05:51:43;179.30;2252.80
57030;DHT22;42920;45.306;20.448;2023-03-01T05:54:12;179.30;2252.80
57030;DHT22;42920;45.306;20.448;2023-03-01T05:56:38;179.30;2252.80
57030;DHT22;42920;45.306;20.448;2023-03-01T05:59:05;179.30;2252.80
57030;DHT22;42920;45.306;20.448;2023-03-01T06:01:32;179.30;2252.80
57030;DHT22;42920;45.306;20.448;2023-03-01T06:03:57;179.20;2252.80
57030;DHT22;42920;45.306;20.448;2023-03-01T06:06:23;179.20;2252.80
57030;DHT22;42920;45.306;20.448;2023-03-01T06:08:49;179.20;2252.80
57030;DHT22;42920;45.306;20.448;2023-03-01T06:11:15;179.20;2252.80
57030;DHT22;42920;45.306;20.448;2023-03-01T06:13:44;154.50;2252.80
57030;DHT22;42920;45.306;20.448;2023-03-01T06:16:10;179.20;2252.80
57030;DHT22;42920;45.306;20.448;2023-03-01T06:18:36;154.50;2252.80
57030;DHT22;42920;45.306;20.448;2023-03-01T06:21:02;154.50;2252.80
57030;DHT22;42920;45.306;20.448;2023-03-01T06:23:28;179.20;2252.80
57030;DHT22;42920;45.306;20.448;2023-03-01T06:25:53;179.20;2252.80
57030;DHT22;42920;45.306;20.448;2023-03-01T06:28:19;154.50;2252.80
57030;DHT22;42920;45.306;20.448;2023-03-01T06:30:45;154.50;2252.80
57030;DHT22;42920;45.306;20.448;2023-03-01T06:33:11;179.20;2252.80
57030;DHT22;42920;45.306;20.448;2023-03-01T06:35:37;154.50;2252.80
57030;DHT22;42920;45.306;20.448;2023-03-01T06:38:04;154.50;2252.80
57030;DHT22;42920;45.306;20.448;2023-03-01T06:40:31;154.40;2252.80
57030;DHT22;42920;45.306;20.448;2023-03-01T06:42:57;154.40;2252.80
57030;DHT22;42920;45.306;20.448;2023-03-01T06:45:24;154.50;2252.80
57030;DHT22;42920;45.306;20.448;2023-03-01T06:47:50;154.50;2252.80
57030;DHT22;42920;45.306;20.448;2023-03-01T06:50:17;154.50;2252.80
57030;DHT22;42920;45.306;20.448;2023-03-01T06:52:43;154.50;2252.80
57030;DHT22;42920;45.306;20.448;2023-03-01T06:55:10;154.50;2252.80
57030;DHT22;42920;45.306;20.448;2023-03-01T06:57:36;179.30;2252.80
57030;DHT22;42920;45.306;20.448;2023-03-01T07:00:02;154.50;2252.80
57030;DHT22;42920;45.306;20.448;2023-03-01T07:02:28;154.50;2252.80
57030;DHT22;42920;45.306;20.448;2023-03-01T07:04:54;154.50;2252.80
57030;DHT22;42920;45.306;20.448;2023-03-01T07:07:19;154.50;2252.80
57030;DHT22;42920;45.306;20.448;2023-03-01T07:09:45;154.50;2252.80
57030;DHT22;42920;45.306;20.448;2023-03-01T07:12:11;179.20;2252.80
57030;DHT22;42920;45.306;20.448;2023-03-01T07:14:37;179.20;2252.80
57030;DHT22;42920;45.306;20.448;2023-03-01T07:17:03;179.20;2252.80
57030;DHT22;42920;45.306;20.448;2023-03-01T07:19:28;179.20;2252.80
57030;DHT22;42920;45.306;20.448;2023-03-01T07:21:54;179.20;2252.80
57030;DHT22;42920;45.306;20.448;2023-03-01T07:24:21;179.20;2252.80
57030;DHT22;42920;45.306;20.448;2023-03-01T07:26:50;179.20;2252.80
57030;DHT22;42920;45.306;20.448;2023-03-01T07:29:16;179.20;2252.80
57030;DHT22;42920;45.306;20.448;2023-03-01T07:31:42;179.20;2252.80
57030;DHT22;42920;45.306;20.448;2023-03-01T07:34:08;179.20;2252.80
57030;DHT22;42920;45.306;20.448;2023-03-01T07:36:33;179.20;2252.80
57030;DHT22;42920;45.306;20.448;2023-03-01T07:38:59;179.20;2252.80
57030;DHT22;42920;45.306;20.448;2023-03-01T07:41:27;179.20;2252.80
57030;DHT22;42920;45.306;20.448;2023-03-01T07:43:53;179.30;2252.80
57030;DHT22;42920;45.306;20.448;2023-03-01T07:46:19;179.20;2252.80
57030;DHT22;42920;45.306;20.448;2023-03-01T07:48:44;179.20;2252.80
57030;DHT22;42920;45.306;20.448;2023-03-01T07:51:10;179.20;2252.80
57030;DHT22;42920;45.306;20.448;2023-03-01T07:53:36;179.30;2252.80
57030;DHT22;42920;45.306;20.448;2023-03-01T07:56:09;179.40;2252.80
57030;DHT22;42920;45.306;20.448;2023-03-01T07:58:35;179.40;2252.80
57030;DHT22;42920;45.306;20.448;2023-03-01T08:01:06;179.40;2252.80
57030;DHT22;42920;45.306;20.448;2023-03-01T08:03:33;179.40;2252.80
57030;DHT22;42920;45.306;20.448;2023-03-01T08:06:00;179.50;2252.80
57030;DHT22;42920;45.306;20.448;2023-03-01T08:08:26;179.50;2252.80
57030;DHT22;42920;45.306;20.448;2023-03-01T08:10:51;179.60;2252.80
57030;DHT22;42920;45.306;20.448;2023-03-01T08:13:17;179.60;2252.80
57030;DHT22;42920;45.306;20.448;2023-03-01T08:15:48;179.60;2252.80
57030;DHT22;42920;45.306;20.448;2023-03-01T08:18:16;179.50;2252.80
57030;DHT22;42920;45.306;20.448;2023-03-01T08:20:42;179.60;2252.80
57030;DHT22;42920;45.306;20.448;2023-03-01T08:23:08;179.60;2252.80
57030;DHT22;42920;45.306;20.448;2023-03-01T08:25:33;179.60;2252.80
57030;DHT22;42920;45.306;20.448;2023-03-01T08:27:59;179.60;2252.80
57030;DHT22;42920;45.306;20.448;2023-03-01T08:30:25;179.60;2252.80
57030;DHT22;42920;45.306;20.448;2023-03-01T08:32:50;179.60;2252.80
57030;DHT22;42920;45.306;20.448;2023-03-01T08:35:16;179.60;2252.80
57030;DHT22;42920;45.306;20.448;2023-03-01T08:37:42;179.50;2252.80
57030;DHT22;42920;45.306;20.448;2023-03-01T08:40:08;179.60;2252.80
57030;DHT22;42920;45.306;20.448;2023-03-01T08:42:35;179.70;2252.80
57030;DHT22;42920;45.306;20.448;2023-03-01T08:45:04;179.80;2252.80
57030;DHT22;42920;45.306;20.448;2023-03-01T08:47:30;179.70;2252.80
57030;DHT22;42920;45.306;20.448;2023-03-01T08:49:56;179.90;2252.80
57030;DHT22;42920;45.306;20.448;2023-03-01T08:52:21;179.90;2252.80
57030;DHT22;42920;45.306;20.448;2023-03-01T08:54:48;179.90;2252.80
57030;DHT22;42920;45.306;20.448;2023-03-01T08:57:14;179.90;2252.80
57030;DHT22;42920;45.306;20.448;2023-03-01T08:59:39;180.00;2252.80
57030;DHT22;42920;45.306;20.448;2023-03-01T09:02:12;180.10;2252.80
57030;DHT22;42920;45.306;20.448;2023-03-01T09:04:38;180.00;2252.80
57030;DHT22;42920;45.306;20.448;2023-03-01T09:07:04;180.00;2252.80
57030;DHT22;42920;45.306;20.448;2023-03-01T09:09:30;180.10;2252.80
57030;DHT22;42920;45.306;20.448;2023-03-01T09:11:55;180.10;2252.80
57030;DHT22;42920;45.306;20.448;2023-03-01T09:14:21;180.10;2252.80
57030;DHT22;42920;45.306;20.448;2023-03-01T09:16:46;204.80;2252.80
57030;DHT22;42920;45.306;20.448;2023-03-01T09:19:12;180.10;2252.80
57030;DHT22;42920;45.306;20.448;2023-03-01T09:21:38;180.10;2252.80
57030;DHT22;42920;45.306;20.448;2023-03-01T09:24:04;180.10;2252.80
57030;DHT22;42920;45.306;20.448;2023-03-01T09:26:29;204.80;2252.80
57030;DHT22;42920;45.306;20.448;2023-03-01T09:28:56;204.80;2252.80
57030;DHT22;42920;45.306;20.448;2023-03-01T09:31:23;204.80;2252.80
57030;DHT22;42920;45.306;20.448;2023-03-01T09:33:51;204.90;2252.80
57030;DHT22;42920;45.306;20.448;2023-03-01T09:36:20;204.90;2252.80
57030;DHT22;42920;45.306;20.448;2023-03-01T09:38:47;205.00;2252.80
57030;DHT22;42920;45.306;20.448;2023-03-01T09:44:04;205.00;2252.80
57030;DHT22;42920;45.306;20.448;2023-03-01T09:46:41;204.90;2252.80
57030;DHT22;42920;45.306;20.448;2023-03-01T09:49:19;205.00;2252.80
57030;DHT22;42920;45.306;20.448;2023-03-01T09:51:57;205.10;2252.80
57030;DHT22;42920;45.306;20.448;2023-03-01T09:54:22;205.10;2252.80
57030;DHT22;42920;45.306;20.448;2023-03-01T10:03:17;205.20;2252.80
57030;DHT22;42920;45.306;20.448;2023-03-01T10:06:06;205.20;2252.80
57030;DHT22;42920;45.306;20.448;2023-03-01T10:08:57;205.30;2252.80
57030;DHT22;42920;45.306;20.448;2023-03-01T10:11:37;205.40;2252.80
57030;DHT22;42920;45.306;20.448;2023-03-01T10:19:48;205.40;2252.80
57030;DHT22;42920;45.306;20.448;2023-03-01T10:24:39;205.50;2252.80
57030;DHT22;42920;45.306;20.448;2023-03-01T10:27:17;205.40;2252.80
57030;DHT22;42920;45.306;20.448;2023-03-01T10:30:15;205.70;2252.80
57030;DHT22;42920;45.306;20.448;2023-03-01T10:32:45;205.60;2252.80
57030;DHT22;42920;45.306;20.448;2023-03-01T10:35:29;205.60;2252.80
57030;DHT22;42920;45.306;20.448;2023-03-01T10:38:12;205.70;2252.80
57030;DHT22;42920;45.306;20.448;2023-03-01T10:43:30;205.70;2252.80
57030;DHT22;42920;45.306;20.448;2023-03-01T10:45:57;205.70;2252.80
57030;DHT22;42920;45.306;20.448;2023-03-01T10:48:24;230.40;2252.80
57030;DHT22;42920;45.306;20.448;2023-03-01T10:51:06;230.50;2252.80
57030;DHT22;42920;45.306;20.448;2023-03-01T10:53:42;230.90;2252.80
57030;DHT22;42920;45.306;20.448;2023-03-01T10:56:11;256.10;2252.80
57030;DHT22;42920;45.306;20.448;2023-03-01T10:58:40;256.50;2252.80
57030;DHT22;42920;45.306;20.448;2023-03-01T11:01:25;256.60;2252.80
57030;DHT22;42920;45.306;20.448;2023-03-01T11:06:34;256.40;2252.80
57030;DHT22;42920;45.306;20.448;2023-03-01T11:09:22;256.30;2252.80
57030;DHT22;42920;45.306;20.448;2023-03-01T11:11:53;256.40;2252.80
57030;DHT22;42920;45.306;20.448;2023-03-01T11:14:25;256.40;2252.80
57030;DHT22;42920;45.306;20.448;2023-03-01T11:17:14;256.40;2252.80
57030;DHT22;42920;45.306;20.448;2023-03-01T11:19:41;256.40;2252.80
57030;DHT22;42920;45.306;20.448;2023-03-01T11:22:13;256.40;2252.80
57030;DHT22;42920;45.306;20.448;2023-03-01T11:24:53;256.40;2252.80
57030;DHT22;42920;45.306;20.448;2023-03-01T11:27:31;256.40;2252.80
57030;DHT22;42920;45.306;20.448;2023-03-01T11:32:42;256.40;2252.80
57030;DHT22;42920;45.306;20.448;2023-03-01T11:35:22;256.40;2252.80
57030;DHT22;42920;45.306;20.448;2023-03-01T11:40:29;256.50;2252.80
57030;DHT22;42920;45.306;20.448;2023-03-01T11:48:55;256.40;2252.80
57030;DHT22;42920;45.306;20.448;2023-03-01T11:57:04;256.40;2252.80
57030;DHT22;42920;45.306;20.448;2023-03-01T12:08:16;256.40;2252.80
57030;DHT22;42920;45.306;20.448;2023-03-01T12:17:05;256.50;2252.80
57030;DHT22;42920;45.306;20.448;2023-03-01T12:20:02;256.40;2252.80
57030;DHT22;42920;45.306;20.448;2023-03-01T12:38:32;256.90;2252.80
57030;DHT22;42920;45.306;20.448;2023-03-01T12:43:41;256.90;2252.80
57030;DHT22;42920;45.306;20.448;2023-03-01T12:46:14;281.70;2278.40
57030;DHT22;42920;45.306;20.448;2023-03-01T12:48:54;281.80;2278.40
57030;DHT22;42920;45.306;20.448;2023-03-01T12:51:26;281.80;2278.40
57030;DHT22;42920;45.306;20.448;2023-03-01T12:53:55;281.90;2278.40
57030;DHT22;42920;45.306;20.448;2023-03-01T12:56:25;281.80;2278.40
57030;DHT22;42920;45.306;20.448;2023-03-01T13:12:03;256.90;2252.80
57030;DHT22;42920;45.306;20.448;2023-03-01T13:16:58;256.90;2252.80
57030;DHT22;42920;45.306;20.448;2023-03-01T13:19:25;256.90;2252.80
57030;DHT22;42920;45.306;20.448;2023-03-01T13:21:53;256.90;2252.80
57030;DHT22;42920;45.306;20.448;2023-03-01T13:24:33;256.90;2252.80
57030;DHT22;42920;45.306;20.448;2023-03-01T13:29:57;256.90;2252.80
57030;DHT22;42920;45.306;20.448;2023-03-01T13:32:31;256.90;2252.80
57030;DHT22;42920;45.306;20.448;2023-03-01T13:37:51;281.70;2278.40
57030;DHT22;42920;45.306;20.448;2023-03-01T13:42:53;281.90;2278.40
57030;DHT22;42920;45.306;20.448;2023-03-01T13:45:41;282.00;2278.40
57030;DHT22;42920;45.306;20.448;2023-03-01T13:48:18;282.20;2278.40
57030;DHT22;42920;45.306;20.448;2023-03-01T13:50:51;282.50;2278.40
57030;DHT22;42920;45.306;20.448;2023-03-01T13:53:20;282.50;2278.40
57030;DHT22;42920;45.306;20.448;2023-03-01T13:55:50;307.20;2304.00
57030;DHT22;42920;45.306;20.448;2023-03-01T14:01:02;307.30;2304.00
57030;DHT22;42920;45.306;20.448;2023-03-01T14:03:30;307.20;2304.00
57030;DHT22;42920;45.306;20.448;2023-03-01T14:06:00;307.20;2304.00
57030;DHT22;42920;45.306;20.448;2023-03-01T14:08:28;307.30;2304.00
57030;DHT22;42920;45.306;20.448;2023-03-01T14:16:46;282.40;2278.40
57030;DHT22;42920;45.306;20.448;2023-03-01T14:19:18;282.20;2278.40
57030;DHT22;42920;45.306;20.448;2023-03-01T14:21:46;282.30;2278.40
57030;DHT22;42920;45.306;20.448;2023-03-01T14:24:21;282.20;2278.40
57030;DHT22;42920;45.306;20.448;2023-03-01T14:26:49;282.20;2278.40
57030;DHT22;42920;45.306;20.448;2023-03-01T14:29:33;282.50;2278.40
57030;DHT22;42920;45.306;20.448;2023-03-01T14:32:12;282.30;2278.40
57030;DHT22;42920;45.306;20.448;2023-03-01T14:34:44;282.30;2278.40
57030;DHT22;42920;45.306;20.448;2023-03-01T14:37:32;282.30;2278.40
57030;DHT22;42920;45.306;20.448;2023-03-01T14:39:59;282.30;2278.40
57030;DHT22;42920;45.306;20.448;2023-03-01T14:42:28;282.30;2278.40
57030;DHT22;42920;45.306;20.448;2023-03-01T14:44:56;282.30;2278.40
57030;DHT22;42920;45.306;20.448;2023-03-01T14:47:28;282.30;2278.40
57030;DHT22;42920;45.306;20.448;2023-03-01T14:50:02;282.30;2278.40
57030;DHT22;42920;45.306;20.448;2023-03-01T14:52:42;282.30;2278.40
57030;DHT22;42920;45.306;20.448;2023-03-01T14:55:25;282.20;2278.40
57030;DHT22;42920;45.306;20.448;2023-03-01T14:57:52;282.20;2278.40
57030;DHT22;42920;45.306;20.448;2023-03-01T15:00:24;282.20;2278.40
57030;DHT22;42920;45.306;20.448;2023-03-01T15:02:55;282.20;2278.40
57030;DHT22;42920;45.306;20.448;2023-03-01T15:05:31;282.10;2278.40
57030;DHT22;42920;45.306;20.448;2023-03-01T15:08:00;282.00;2278.40
57030;DHT22;42920;45.306;20.448;2023-03-01T15:10:33;282.00;2278.40
57030;DHT22;42920;45.306;20.448;2023-03-01T15:13:14;282.10;2278.40
57030;DHT22;42920;45.306;20.448;2023-03-01T15:15:44;282.00;2278.40
57030;DHT22;42920;45.306;20.448;2023-03-01T15:18:36;282.00;2278.40
57030;DHT22;42920;45.306;20.448;2023-03-01T15:21:23;282.00;2278.40
57030;DHT22;42920;45.306;20.448;2023-03-01T15:24:04;281.90;2278.40
57030;DHT22;42920;45.306;20.448;2023-03-01T15:26:41;281.90;2278.40
57030;DHT22;42920;45.306;20.448;2023-03-01T15:29:16;281.90;2278.40
57030;DHT22;42920;45.306;20.448;2023-03-01T15:31:50;281.80;2278.40
57030;DHT22;42920;45.306;20.448;2023-03-01T15:36:56;281.90;2278.40
57030;DHT22;42920;45.306;20.448;2023-03-01T15:42:07;281.90;2278.40
57030;DHT22;42920;45.306;20.448;2023-03-01T15:44:38;281.80;2278.40
57030;DHT22;42920;45.306;20.448;2023-03-01T15:47:27;281.80;2278.40
57030;DHT22;42920;45.306;20.448;2023-03-01T15:49:54;281.70;2278.40
57030;DHT22;42920;45.306;20.448;2023-03-01T15:52:41;281.70;2278.40
57030;DHT22;42920;45.306;20.448;2023-03-01T15:55:26;256.90;2252.80
57030;DHT22;42920;45.306;20.448;2023-03-01T15:58:12;281.60;2278.40
57030;DHT22;42920;45.306;20.448;2023-03-01T16:00:38;256.90;2252.80
57030;DHT22;42920;45.306;20.448;2023-03-01T16:03:05;256.90;2252.80
57030;DHT22;42920;45.306;20.448;2023-03-01T16:05:33;256.90;2252.80
57030;DHT22;42920;45.306;20.448;2023-03-01T16:08:00;256.90;2252.80
57030;DHT22;42920;45.306;20.448;2023-03-01T16:10:26;256.90;2252.80
57030;DHT22;42920;45.306;20.448;2023-03-01T16:12:53;256.90;2252.80
57030;DHT22;42920;45.306;20.448;2023-03-01T16:15:27;281.60;2278.40
57030;DHT22;42920;45.306;20.448;2023-03-01T16:17:53;281.60;2278.40
57030;DHT22;42920;45.306;20.448;2023-03-01T16:20:19;281.60;2278.40
57030;DHT22;42920;45.306;20.448;2023-03-01T16:22:46;281.60;2278.40
57030;DHT22;42920;45.306;20.448;2023-03-01T16:25:14;256.90;2252.80
57030;DHT22;42920;45.306;20.448;2023-03-01T16:27:43;256.90;2252.80
57030;DHT22;42920;45.306;20.448;2023-03-01T16:30:10;256.90;2252.80
57030;DHT22;42920;45.306;20.448;2023-03-01T16:32:43;256.90;2252.80
57030;DHT22;42920;45.306;20.448;2023-03-01T16:35:11;256.80;2252.80
57030;DHT22;42920;45.306;20.448;2023-03-01T16:37:37;256.70;2252.80
57030;DHT22;42920;45.306;20.448;2023-03-01T16:40:05;256.70;2252.80
57030;DHT22;42920;45.306;20.448;2023-03-01T16:42:35;256.60;2252.80
57030;DHT22;42920;45.306;20.448;2023-03-01T16:45:00;256.70;2252.80
57030;DHT22;42920;45.306;20.448;2023-03-01T16:47:29;256.70;2252.80
57030;DHT22;42920;45.306;20.448;2023-03-01T16:49:55;256.80;2252.80